sensor_id;sensor_type;location;lat;lon;timestamp;pressure;altitude;pressure_sealevel;temperature;humidity
65054;BME280;51639;47.828;35.038;2022-08-03T00:02:11;99621.97;;;21.23;100.00
65054;BME280;51639;47.828;35.038;2022-08-03T00:17:14;99613.44;;;21.21;100.00
65054;BME280;51639;47.828;35.038;2022-08-03T00:32:16;99609.91;;;21.37;100.00
65054;BME280;51639;47.828;35.038;2022-08-03T00:47:22;99598.13;;;21.26;100.00
65054;BME280;51639;47.828;35.038;2022-08-03T01:02:26;99597.59;;;21.10;100.00
65054;BME280;51639;47.828;35.038;2022-08-03T01:17:35;99600.09;;;21.08;100.00
65054;BME280;51639;47.828;35.038;2022-08-03T01:32:49;99600.34;;;20.83;100.00
65054;BME280;51639;47.828;35.038;2022-08-03T01:48:03;99597.84;;;20.73;100.00
65054;BME280;51639;47.828;35.038;2022-08-03T02:03:07;99610.84;;;20.56;100.00
65054;BME280;51639;47.828;35.038;2022-08-03T02:18:13;99617.91;;;20.68;100.00
65054;BME280;51639;47.828;35.038;2022-08-03T02:33:25;99615.34;;;20.59;100.00
65054;BME280;51639;47.828;35.038;2022-08-03T02:48:29;99629.19;;;20.76;100.00
65054;BME280;51639;47.828;35.038;2022-08-03T03:03:34;99626.19;;;20.74;100.00
65054;BME280;51639;47.828;35.038;2022-08-03T03:18:46;99624.38;;;20.60;100.00
65054;BME280;51639;47.828;35.038;2022-08-03T03:33:50;99634.97;;;20.95;100.00
65054;BME280;51639;47.828;35.038;2022-08-03T03:48:52;99629.47;;;21.17;100.00
65054;BME280;51639;47.828;35.038;2022-08-03T04:03:54;99638.50;;;21.46;100.00
65054;BME280;51639;47.828;35.038;2022-08-03T04:19:08;99644.69;;;21.96;100.00
65054;BME280;51639;47.828;35.038;2022-08-03T04:34:11;99643.31;;;22.72;100.00
65054;BME280;51639;47.828;35.038;2022-08-03T04:49:13;99651.59;;;22.77;100.00
65054;BME280;51639;47.828;35.038;2022-08-03T05:04:15;99655.78;;;23.25;100.00
65054;BME280;51639;47.828;35.038;2022-08-03T05:19:17;99666.34;;;23.57;100.00
65054;BME280;51639;47.828;35.038;2022-08-03T05:34:19;99676.69;;;24.48;100.00
65054;BME280;51639;47.828;35.038;2022-08-03T05:49:22;99700.66;;;24.02;100.00
65054;BME280;51639;47.828;35.038;2022-08-03T06:04:24;99697.44;;;24.60;100.00
65054;BME280;51639;47.828;35.038;2022-08-03T06:19:26;99707.13;;;24.91;100.00
65054;BME280;51639;47.828;35.038;2022-08-03T06:34:28;99720.78;;;24.70;100.00
65054;BME280;51639;47.828;35.038;2022-08-03T06:49:36;99731.59;;;24.55;100.00
65054;BME280;51639;47.828;35.038;2022-08-03T07:04:39;99732.41;;;25.06;100.00
65054;BME280;51639;47.828;35.038;2022-08-03T07:19:41;99743.03;;;25.72;96.26
65054;BME280;51639;47.828;35.038;2022-08-03T07:34:42;99748.06;;;25.87;93.22
65054;BME280;51639;47.828;35.038;2022-08-03T07:49:44;99753.09;;;26.28;88.76
65054;BME280;51639;47.828;35.038;2022-08-03T08:04:47;99762.34;;;27.09;85.93
65054;BME280;51639;47.828;35.038;2022-08-03T08:19:49;99771.44;;;27.65;80.33
65054;BME280;51639;47.828;35.038;2022-08-03T08:34:53;99781.91;;;27.72;79.85
65054;BME280;51639;47.828;35.038;2022-08-03T08:49:57;99783.50;;;27.46;79.68
65054;BME280;51639;47.828;35.038;2022-08-03T09:05:16;99773.44;;;27.43;77.11
65054;BME280;51639;47.828;35.038;2022-08-03T09:20:20;99767.13;;;28.34;73.63
65054;BME280;51639;47.828;35.038;2022-08-03T09:35:26;99772.09;;;28.64;70.06
65054;BME280;51639;47.828;35.038;2022-08-03T09:50:53;99777.97;;;29.47;66.07
65054;BME280;51639;47.828;35.038;2022-08-03T10:06:13;99774.63;;;29.95;59.72
65054;BME280;51639;47.828;35.038;2022-08-03T10:21:17;99783.47;;;29.17;64.70
65054;BME280;51639;47.828;35.038;2022-08-03T10:36:23;99783.56;;;29.47;61.84
65054;BME280;51639;47.828;35.038;2022-08-03T10:51:25;99768.69;;;31.09;59.80
65054;BME280;51639;47.828;35.038;2022-08-03T11:06:32;99785.44;;;31.24;54.96
65054;BME280;51639;47.828;35.038;2022-08-03T11:37:18;99770.47;;;29.27;56.05
65054;BME280;51639;47.828;35.038;2022-08-03T11:52:22;99771.50;;;27.72;60.46
65054;BME280;51639;47.828;35.038;2022-08-03T12:07:29;99773.72;;;27.32;61.63
65054;BME280;51639;47.828;35.038;2022-08-03T12:22:51;99773.63;;;26.77;60.94
65054;BME280;51639;47.828;35.038;2022-08-03T12:37:53;99745.00;;;26.30;62.53
65054;BME280;51639;47.828;35.038;2022-08-03T12:52:56;99732.91;;;26.14;65.26
65054;BME280;51639;47.828;35.038;2022-08-03T13:07:59;99718.31;;;25.81;63.98
65054;BME280;51639;47.828;35.038;2022-08-03T13:23:01;99714.25;;;26.22;64.57
65054;BME280;51639;47.828;35.038;2022-08-03T13:38:03;99730.44;;;26.10;64.17
65054;BME280;51639;47.828;35.038;2022-08-03T13:53:05;99754.53;;;26.21;64.61
65054;BME280;51639;47.828;35.038;2022-08-03T14:08:07;99758.06;;;26.35;63.85
65054;BME280;51639;47.828;35.038;2022-08-03T14:23:09;99777.75;;;26.63;62.18
65054;BME280;51639;47.828;35.038;2022-08-03T14:38:13;99784.06;;;26.64;62.46
65054;BME280;51639;47.828;35.038;2022-08-03T14:53:15;99781.94;;;26.43;62.11
65054;BME280;51639;47.828;35.038;2022-08-03T15:08:22;99762.34;;;26.36;63.00
65054;BME280;51639;47.828;35.038;2022-08-03T15:23:24;99770.56;;;26.15;63.35
65054;BME280;51639;47.828;35.038;2022-08-03T15:38:27;99772.13;;;25.84;64.71
65054;BME280;51639;47.828;35.038;2022-08-03T15:53:28;99764.97;;;25.57;65.14
65054;BME280;51639;47.828;35.038;2022-08-03T16:08:31;99760.94;;;25.07;66.55
65054;BME280;51639;47.828;35.038;2022-08-03T16:23:32;99776.88;;;24.63;69.88
65054;BME280;51639;47.828;35.038;2022-08-03T16:38:38;99786.34;;;24.30;71.06
65054;BME280;51639;47.828;35.038;2022-08-03T16:53:40;99806.59;;;24.20;72.70
65054;BME280;51639;47.828;35.038;2022-08-03T17:09:07;99803.22;;;24.02;73.50
65054;BME280;51639;47.828;35.038;2022-08-03T17:24:27;99820.97;;;23.88;74.43
65054;BME280;51639;47.828;35.038;2022-08-03T17:39:32;99847.84;;;23.69;75.51
65054;BME280;51639;47.828;35.038;2022-08-03T17:55:13;99863.09;;;23.45;78.29
65054;BME280;51639;47.828;35.038;2022-08-03T18:10:38;99866.41;;;23.38;78.07
65054;BME280;51639;47.828;35.038;2022-08-03T18:25:50;99879.78;;;23.34;79.10
65054;BME280;51639;47.828;35.038;2022-08-03T18:40:58;99880.03;;;23.36;80.23
65054;BME280;51639;47.828;35.038;2022-08-03T18:56:25;99875.25;;;23.31;80.89
65054;BME280;51639;47.828;35.038;2022-08-03T19:11:35;99876.56;;;23.25;82.88
65054;BME280;51639;47.828;35.038;2022-08-03T19:26:58;99874.25;;;23.34;82.20
65054;BME280;51639;47.828;35.038;2022-08-03T19:42:06;99877.72;;;23.40;82.71
65054;BME280;51639;47.828;35.038;2022-08-03T19:57:35;99864.38;;;23.39;83.76
65054;BME280;51639;47.828;35.038;2022-08-03T20:12:38;99876.97;;;23.40;84.65
65054;BME280;51639;47.828;35.038;2022-08-03T20:27:42;99877.31;;;23.20;87.50
65054;BME280;51639;47.828;35.038;2022-08-03T20:43:05;99869.28;;;23.16;86.55
65054;BME280;51639;47.828;35.038;2022-08-03T20:58:11;99849.22;;;22.99;87.05
65054;BME280;51639;47.828;35.038;2022-08-03T21:28:28;99861.28;;;23.07;85.76
65054;BME280;51639;47.828;35.038;2022-08-03T21:43:30;99871.34;;;23.04;85.34
65054;BME280;51639;47.828;35.038;2022-08-03T21:58:40;99870.44;;;22.79;87.14
65054;BME280;51639;47.828;35.038;2022-08-03T22:13:51;99867.16;;;22.70;87.14
65054;BME280;51639;47.828;35.038;2022-08-03T22:28:53;99879.56;;;22.41;90.61
65054;BME280;51639;47.828;35.038;2022-08-03T22:43:57;99890.63;;;22.07;94.12
65054;BME280;51639;47.828;35.038;2022-08-03T22:59:05;99899.41;;;21.95;97.07
65054;BME280;51639;47.828;35.038;2022-08-03T23:14:32;99885.56;;;21.78;99.30
65054;BME280;51639;47.828;35.038;2022-08-03T23:29:42;99873.50;;;21.81;98.54
65054;BME280;51639;47.828;35.038;2022-08-03T23:44:45;99883.59;;;21.95;97.55
